Time;durP1;ratioP1;P1;durP2;ratioP2;P2;SDS_P1;SDS_P2;PMS_P1;PMS_P2;Temp;Humidity;BMP_temperature;BMP_pressure;BME280_temperature;BME280_humidity;BME280_pressure;Samples;Min_cycle;Max_cycle;Signal;HPM_P1;HPM_P2
2023/01/14 00:00:53;;;;;;;16.77;6.13;;;;;;;;;;4965527;28;20066;-72
2023/01/14 00:03:25;;;;;;;9.60;5.35;;;;;;;;;;4959236;28;20066;-75
2023/01/14 00:05:56;;;;;;;13.13;5.50;;;;;;;;;;4967291;28;22458;-69
2023/01/14 00:08:21;;;;;;;14.75;5.68;;;;;;;;;;4957891;28;20046;-76
2023/01/14 00:10:48;;;;;;;10.02;5.07;;;;;;;;;;4957850;28;20053;-74
2023/01/14 00:13:13;;;;;;;9.90;5.90;;;;;;;;;;4963806;28;20047;-70
2023/01/14 00:15:47;;;;;;;10.93;6.22;;;;;;;;;;4969864;28;20127;-78
2023/01/14 00:18:13;;;;;;;10.25;5.35;;;;;;;;;;4962965;28;20614;-74
2023/01/14 00:20:39;;;;;;;12.20;6.45;;;;;;;;;;4962343;28;20054;-73
2023/01/14 00:23:05;;;;;;;10.45;5.65;;;;;;;;;;4968085;28;20127;-68
2023/01/14 00:25:34;;;;;;;7.72;4.90;;;;;;;;;;4967606;28;20073;-73
2023/01/14 00:28:00;;;;;;;9.50;5.80;;;;;;;;;;4961427;28;20197;-75
2023/01/14 00:30:26;;;;;;;10.52;5.15;;;;;;;;;;4960743;28;20055;-73
2023/01/14 00:32:51;;;;;;;14.13;5.68;;;;;;;;;;4962586;28;20053;-68
2023/01/14 00:35:18;;;;;;;10.45;5.68;;;;;;;;;;4957641;28;20857;-75
2023/01/14 00:37:44;;;;;;;8.70;5.25;;;;;;;;;;4958791;28;20093;-69
2023/01/14 00:40:11;;;;;;;11.13;5.55;;;;;;;;;;4958413;28;20038;-69
2023/01/14 00:42:36;;;;;;;9.20;5.18;;;;;;;;;;4957796;28;20557;-68
2023/01/14 00:45:03;;;;;;;8.05;4.93;;;;;;;;;;4963075;28;20051;-78
2023/01/14 00:47:28;;;;;;;10.30;5.72;;;;;;;;;;4960612;28;20053;-72
2023/01/14 00:49:54;;;;;;;9.82;5.93;;;;;;;;;;4953760;28;20043;-67
2023/01/14 00:52:20;;;;;;;12.27;5.65;;;;;;;;;;4956486;28;20585;-69
2023/01/14 00:54:46;;;;;;;10.35;5.45;;;;;;;;;;4959995;28;20047;-70
2023/01/14 00:57:14;;;;;;;7.68;5.50;;;;;;;;;;4963172;28;20543;-70
2023/01/14 00:59:40;;;;;;;8.55;4.93;;;;;;;;;;4957434;28;20068;-68
2023/01/14 01:02:07;;;;;;;11.00;6.22;;;;;;;;;;4958239;28;20149;-68
2023/01/14 01:04:33;;;;;;;10.25;5.40;;;;;;;;;;4965117;28;20050;-69
2023/01/14 01:06:59;;;;;;;12.38;5.70;;;;;;;;;;4962816;28;20130;-72
2023/01/14 01:09:26;;;;;;;14.15;6.40;;;;;;;;;;4957444;28;20055;-71
2023/01/14 01:11:54;;;;;;;9.23;5.40;;;;;;;;;;4952666;28;20081;-72
2023/01/14 01:14:21;;;;;;;10.30;5.45;;;;;;;;;;4957819;28;20054;-76
2023/01/14 01:16:46;;;;;;;8.95;5.15;;;;;;;;;;4967661;28;20054;-71
2023/01/14 01:19:13;;;;;;;11.43;5.30;;;;;;;;;;4950212;28;20055;-76
2023/01/14 01:21:38;;;;;;;10.93;5.90;;;;;;;;;;4955431;28;20047;-71
2023/01/14 01:24:05;;;;;;;8.98;5.60;;;;;;;;;;4953394;28;20420;-72
2023/01/14 01:26:30;;;;;;;12.88;5.50;;;;;;;;;;4959433;28;20163;-68
2023/01/14 01:28:58;;;;;;;8.32;5.35;;;;;;;;;;4956631;28;20767;-71
2023/01/14 01:31:24;;;;;;;13.25;5.78;;;;;;;;;;4948872;28;20057;-69
2023/01/14 01:33:51;;;;;;;7.32;4.45;;;;;;;;;;4956371;28;20422;-71
2023/01/14 01:36:19;;;;;;;6.60;4.35;;;;;;;;;;4971098;28;20138;-74
2023/01/14 01:38:47;;;;;;;5.90;3.80;;;;;;;;;;4954361;28;20414;-71
2023/01/14 01:41:19;;;;;;;9.73;4.13;;;;;;;;;;4959813;28;20129;-71
2023/01/14 01:44:10;;;;;;;6.05;3.50;;;;;;;;;;4959958;28;20043;-75
2023/01/14 01:46:37;;;;;;;13.85;4.05;;;;;;;;;;4968504;28;20054;-72
2023/01/14 01:49:20;;;;;;;6.45;3.33;;;;;;;;;;4956290;28;20089;-73
2023/01/14 01:51:50;;;;;;;5.80;3.55;;;;;;;;;;4952630;28;20069;-74
2023/01/14 01:54:20;;;;;;;4.38;3.00;;;;;;;;;;4950371;28;20051;-70
2023/01/14 01:56:46;;;;;;;4.95;2.92;;;;;;;;;;4954107;28;20449;-79
2023/01/14 01:59:17;;;;;;;4.72;2.75;;;;;;;;;;4955082;28;20323;-74
2023/01/14 02:01:45;;;;;;;4.75;2.67;;;;;;;;;;4954518;28;20062;-70
2023/01/14 02:04:12;;;;;;;3.85;2.63;;;;;;;;;;4951499;28;20504;-71
2023/01/14 02:06:38;;;;;;;3.63;2.50;;;;;;;;;;4961415;28;20054;-71
2023/01/14 02:09:05;;;;;;;4.15;2.53;;;;;;;;;;4951008;28;20051;-69
2023/01/14 02:11:50;;;;;;;5.20;2.50;;;;;;;;;;4955490;28;20047;-77
2023/01/14 02:14:42;;;;;;;4.75;3.03;;;;;;;;;;4956225;28;20094;-76
2023/01/14 02:17:22;;;;;;;4.20;2.38;;;;;;;;;;4954969;28;20069;-71
2023/01/14 02:20:14;;;;;;;4.47;2.38;;;;;;;;;;4957399;28;20050;-69
2023/01/14 02:22:46;;;;;;;4.68;2.10;;;;;;;;;;4957244;28;20145;-68
2023/01/14 02:25:33;;;;;;;5.05;2.20;;;;;;;;;;4960103;28;20043;-69
2023/01/14 02:28:25;;;;;;;3.75;1.92;;;;;;;;;;4947340;28;20066;-73
2023/01/14 02:31:00;;;;;;;3.72;2.03;;;;;;;;;;4951834;28;20058;-76
2023/01/14 02:33:52;;;;;;;2.78;1.80;;;;;;;;;;4954500;28;20047;-67
2023/01/14 02:36:41;;;;;;;2.95;1.80;;;;;;;;;;4960573;28;20055;-72
2023/01/14 02:39:14;;;;;;;3.67;1.63;;;;;;;;;;4952873;28;20064;-68
2023/01/14 02:44:52;;;;;;;3.92;1.90;;;;;;;;;;4957147;28;20078;-71
2023/01/14 02:47:24;;;;;;;3.53;1.73;;;;;;;;;;4952567;28;20059;-72
2023/01/14 02:49:52;;;;;;;3.53;1.60;;;;;;;;;;4950738;28;20062;-68
2023/01/14 02:52:19;;;;;;;3.33;1.83;;;;;;;;;;4950522;28;20051;-74
2023/01/14 02:55:00;;;;;;;3.75;1.75;;;;;;;;;;4955668;28;20125;-72
2023/01/14 02:58:03;;;;;;;3.42;1.70;;;;;;;;;;4955436;28;20110;-74
2023/01/14 03:00:44;;;;;;;3.88;1.73;;;;;;;;;;4954576;28;20059;-67
2023/01/14 03:03:28;;;;;;;3.70;1.90;;;;;;;;;;4957558;28;20043;-68
2023/01/14 03:06:03;;;;;;;2.15;1.63;;;;;;;;;;4956759;28;20042;-67
2023/01/14 03:08:48;;;;;;;2.97;1.77;;;;;;;;;;4950116;28;20105;-67
2023/01/14 03:11:13;;;;;;;3.07;1.50;;;;;;;;;;4951580;28;20137;-70
2023/01/14 03:13:57;;;;;;;2.33;1.60;;;;;;;;;;4954416;28;20078;-75
2023/01/14 03:16:29;;;;;;;3.38;1.80;;;;;;;;;;4953679;28;20050;-71
2023/01/14 03:19:01;;;;;;;3.28;1.80;;;;;;;;;;4954194;28;20089;-66
2023/01/14 03:21:33;;;;;;;4.40;1.70;;;;;;;;;;4955367;28;20039;-73
2023/01/14 03:24:04;;;;;;;5.63;1.95;;;;;;;;;;4955014;28;20165;-70
2023/01/14 03:26:32;;;;;;;4.47;1.90;;;;;;;;;;4954131;28;20055;-68
2023/01/14 03:29:02;;;;;;;4.78;2.55;;;;;;;;;;4957375;28;20047;-69
2023/01/14 03:31:30;;;;;;;3.45;2.35;;;;;;;;;;4951856;28;20441;-73
2023/01/14 03:34:04;;;;;;;4.07;2.22;;;;;;;;;;4951184;28;20133;-67
2023/01/14 03:36:32;;;;;;;;;;;;;;;;;;4950356;28;20067;-67
2023/01/14 03:39:03;;;;;;;6.00;2.53;;;;;;;;;;4954265;28;20288;-74
2023/01/14 03:44:52;;;;;;;7.20;3.33;;;;;;;;;;4960275;28;20053;-68
2023/01/14 03:47:21;;;;;;;6.30;3.40;;;;;;;;;;4955318;28;20082;-76
2023/01/14 03:49:49;;;;;;;5.03;3.13;;;;;;;;;;4958836;28;20745;-66
2023/01/14 03:52:24;;;;;;;7.07;3.75;;;;;;;;;;4953997;28;20050;-74
2023/01/14 03:55:06;;;;;;;9.75;4.78;;;;;;;;;;4961275;28;20497;-74
2023/01/14 03:57:59;;;;;;;7.05;4.28;;;;;;;;;;4955815;28;20070;-78
2023/01/14 04:00:33;;;;;;;7.32;4.50;;;;;;;;;;4947324;28;20101;-75
2023/01/14 04:03:01;;;;;;;9.23;4.97;;;;;;;;;;4956557;28;20054;-66
2023/01/14 04:05:28;;;;;;;6.38;4.55;;;;;;;;;;4949009;28;20043;-68
2023/01/14 04:07:57;;;;;;;9.90;5.07;;;;;;;;;;4954112;28;20129;-70
2023/01/14 04:10:23;;;;;;;7.35;5.20;;;;;;;;;;4955264;28;20243;-72
2023/01/14 04:15:33;;;;;;;9.05;4.78;;;;;;;;;;4951098;28;20560;-73
2023/01/14 04:17:59;;;;;;;8.13;4.80;;;;;;;;;;4955871;28;20059;-71
2023/01/14 04:20:25;;;;;;;8.45;4.80;;;;;;;;;;4957558;28;20061;-74
2023/01/14 04:22:51;;;;;;;9.10;4.97;;;;;;;;;;4950897;28;20711;-67
2023/01/14 04:25:17;;;;;;;8.45;5.15;;;;;;;;;;4952587;28;20128;-76
2023/01/14 04:27:43;;;;;;;9.68;5.30;;;;;;;;;;4951989;28;20533;-78
2023/01/14 04:30:10;;;;;;;8.18;5.22;;;;;;;;;;4951035;28;20878;-72
2023/01/14 04:32:35;;;;;;;13.52;5.65;;;;;;;;;;4963685;28;20051;-74
2023/01/14 04:35:03;;;;;;;10.50;5.82;;;;;;;;;;4954699;28;20047;-69
2023/01/14 04:37:28;;;;;;;8.90;5.78;;;;;;;;;;4955356;28;20055;-78
2023/01/14 04:39:55;;;;;;;7.88;5.15;;;;;;;;;;4953604;28;20114;-74
2023/01/14 04:42:27;;;;;;;9.68;5.53;;;;;;;;;;4954667;28;20788;-68
2023/01/14 04:45:01;;;;;;;10.00;5.35;;;;;;;;;;4955567;28;20051;-73
2023/01/14 04:47:28;;;;;;;9.82;5.93;;;;;;;;;;4953680;28;22472;-79
2023/01/14 04:49:54;;;;;;;8.60;5.28;;;;;;;;;;4958805;28;20058;-67
2023/01/14 04:52:21;;;;;;;10.07;5.70;;;;;;;;;;4960378;28;20536;-71
2023/01/14 04:54:47;;;;;;;20.92;6.50;;;;;;;;;;4955475;28;20043;-72
2023/01/14 04:57:13;;;;;;;9.25;6.13;;;;;;;;;;4971191;28;20130;-71
2023/01/14 04:59:39;;;;;;;9.27;6.00;;;;;;;;;;4954665;28;20054;-78
2023/01/14 05:02:05;;;;;;;9.27;5.75;;;;;;;;;;4954608;28;20058;-67
2023/01/14 05:04:31;;;;;;;8.75;6.07;;;;;;;;;;4957908;28;20704;-72
2023/01/14 05:06:57;;;;;;;9.30;5.43;;;;;;;;;;4950940;28;20054;-73
2023/01/14 05:09:23;;;;;;;9.18;5.40;;;;;;;;;;4951155;28;20047;-69
2023/01/14 05:11:49;;;;;;;7.43;5.60;;;;;;;;;;4954338;28;20420;-69
2023/01/14 05:14:15;;;;;;;8.27;5.53;;;;;;;;;;4954665;28;20043;-78
2023/01/14 05:16:41;;;;;;;10.07;6.00;;;;;;;;;;4954800;28;20082;-74
2023/01/14 05:19:07;;;;;;;7.35;5.38;;;;;;;;;;4958004;28;20053;-68
2023/01/14 05:21:33;;;;;;;9.82;5.63;;;;;;;;;;4955598;28;20043;-78
2023/01/14 05:23:59;;;;;;;9.30;6.10;;;;;;;;;;4971162;28;20062;-70
2023/01/14 05:26:25;;;;;;;8.57;5.90;;;;;;;;;;4951163;28;20050;-67
2023/01/14 05:28:51;;;;;;;14.20;5.43;;;;;;;;;;4957951;28;20059;-68
2023/01/14 05:31:17;;;;;;;8.00;5.35;;;;;;;;;;4957920;28;20179;-68
2023/01/14 05:33:43;;;;;;;9.77;5.45;;;;;;;;;;4954541;28;20514;-68
2023/01/14 05:36:09;;;;;;;8.90;5.30;;;;;;;;;;4949612;28;20185;-67
2023/01/14 05:38:35;;;;;;;7.53;5.40;;;;;;;;;;4955833;28;20488;-71
2023/01/14 05:41:01;;;;;;;7.50;5.25;;;;;;;;;;4953685;28;20049;-66
2023/01/14 05:46:17;;;;;;;10.30;5.10;;;;;;;;;;4960596;28;20043;-72
2023/01/14 05:48:43;;;;;;;10.75;5.82;;;;;;;;;;4957923;28;20077;-74
2023/01/14 05:51:12;;;;;;;8.30;5.57;;;;;;;;;;4963914;28;20133;-72
2023/01/14 05:53:39;;;;;;;6.90;4.80;;;;;;;;;;4956332;28;20058;-67
2023/01/14 05:56:06;;;;;;;9.95;4.85;;;;;;;;;;4959362;28;20079;-76
2023/01/14 05:58:32;;;;;;;7.60;4.65;;;;;;;;;;4960056;28;20078;-73
2023/01/14 06:06:38;;;;;;;7.00;4.40;;;;;;;;;;4954011;28;20043;-71
2023/01/14 06:09:09;;;;;;;7.53;3.97;;;;;;;;;;4960663;28;20054;-73
2023/01/14 06:11:36;;;;;;;5.70;3.70;;;;;;;;;;4959708;28;20050;-67
2023/01/14 06:14:03;;;;;;;6.30;3.78;;;;;;;;;;4951400;28;20047;-72
2023/01/14 06:16:32;;;;;;;8.95;3.53;;;;;;;;;;4951382;28;20150;-77
2023/01/14 06:18:58;;;;;;;7.10;3.38;;;;;;;;;;4960447;28;20138;-73
2023/01/14 06:21:29;;;;;;;6.95;3.35;;;;;;;;;;4962137;28;20142;-79
2023/01/14 06:23:56;;;;;;;7.00;3.97;;;;;;;;;;4962074;28;20058;-72
2023/01/14 06:26:27;;;;;;;6.85;3.83;;;;;;;;;;4957470;28;20145;-68
2023/01/14 06:29:01;;;;;;;11.93;4.40;;;;;;;;;;4953685;28;20208;-70
2023/01/14 06:31:27;;;;;;;9.80;4.38;;;;;;;;;;4962015;28;20473;-69
2023/01/14 06:33:55;;;;;;;9.57;4.38;;;;;;;;;;4954564;28;20051;-71
2023/01/14 06:36:22;;;;;;;9.93;5.60;;;;;;;;;;4959328;28;20571;-71
2023/01/14 06:38:49;;;;;;;12.07;4.90;;;;;;;;;;4953768;28;20137;-68
2023/01/14 06:41:15;;;;;;;13.75;4.63;;;;;;;;;;4962498;28;20541;-68
2023/01/14 06:43:41;;;;;;;9.45;4.38;;;;;;;;;;4962707;28;20485;-66
2023/01/14 06:46:10;;;;;;;7.32;5.00;;;;;;;;;;4953058;28;20657;-67
2023/01/14 06:48:36;;;;;;;9.77;4.88;;;;;;;;;;4957064;28;20051;-67
2023/01/14 06:51:04;;;;;;;9.20;4.65;;;;;;;;;;4959862;28;20093;-75
2023/01/14 06:53:30;;;;;;;10.13;4.22;;;;;;;;;;4956346;28;20054;-66
2023/01/14 06:56:00;;;;;;;11.00;4.80;;;;;;;;;;4960096;28;20113;-74
2023/01/14 06:58:26;;;;;;;8.30;4.70;;;;;;;;;;4954466;28;20047;-68
2023/01/14 07:00:56;;;;;;;10.82;4.32;;;;;;;;;;4962393;28;20051;-70
2023/01/14 07:03:23;;;;;;;6.72;4.60;;;;;;;;;;4957068;28;20055;-71
2023/01/14 07:05:49;;;;;;;6.95;4.07;;;;;;;;;;4952827;28;20046;-77
2023/01/14 07:08:15;;;;;;;8.55;4.70;;;;;;;;;;4955848;28;20046;-77
2023/01/14 07:10:41;;;;;;;9.25;4.32;;;;;;;;;;4955555;28;20062;-77
2023/01/14 07:13:07;;;;;;;6.95;4.38;;;;;;;;;;4948529;28;20047;-73
2023/01/14 07:15:33;;;;;;;7.57;4.20;;;;;;;;;;4951814;28;20070;-77
2023/01/14 07:17:59;;;;;;;6.05;4.00;;;;;;;;;;4943855;28;21200;-80
2023/01/14 07:20:25;;;;;;;11.70;4.50;;;;;;;;;;4956950;28;20137;-80
2023/01/14 07:22:51;;;;;;;9.77;4.18;;;;;;;;;;4953169;28;20059;-72
2023/01/14 07:25:17;;;;;;;9.00;5.13;;;;;;;;;;4952127;28;20069;-70
2023/01/14 07:27:43;;;;;;;8.95;5.22;;;;;;;;;;4954676;28;20051;-70
2023/01/14 07:30:10;;;;;;;8.75;5.55;;;;;;;;;;4960157;28;20043;-74
2023/01/14 07:32:36;;;;;;;7.70;5.10;;;;;;;;;;4956432;28;20051;-77
2023/01/14 07:35:02;;;;;;;8.85;5.13;;;;;;;;;;4957445;28;20562;-70
2023/01/14 07:37:28;;;;;;;7.95;5.10;;;;;;;;;;4956067;28;20073;-80
2023/01/14 07:39:54;;;;;;;9.05;5.13;;;;;;;;;;4955944;28;20117;-77
2023/01/14 07:42:20;;;;;;;10.15;5.50;;;;;;;;;;4949984;28;20377;-78
2023/01/14 07:44:46;;;;;;;13.60;6.10;;;;;;;;;;4952010;28;20108;-71
2023/01/14 07:47:13;;;;;;;8.98;5.05;;;;;;;;;;4960865;28;20047;-75
2023/01/14 07:49:40;;;;;;;9.05;4.70;;;;;;;;;;4951239;28;20510;-70
2023/01/14 07:52:07;;;;;;;9.63;5.15;;;;;;;;;;4959236;28;20050;-73
2023/01/14 07:54:33;;;;;;;10.85;4.95;;;;;;;;;;4956065;28;20662;-72
2023/01/14 07:56:59;;;;;;;11.90;5.28;;;;;;;;;;4957517;28;20057;-73
2023/01/14 07:59:25;;;;;;;9.98;5.00;;;;;;;;;;4959882;28;20059;-72
2023/01/14 08:01:51;;;;;;;8.27;5.22;;;;;;;;;;4955744;28;20509;-75
2023/01/14 08:04:17;;;;;;;10.13;5.38;;;;;;;;;;4953451;28;20047;-74
2023/01/14 08:06:44;;;;;;;8.18;5.57;;;;;;;;;;4951543;28;20058;-71
2023/01/14 08:09:10;;;;;;;8.45;5.40;;;;;;;;;;4946039;28;20061;-71
2023/01/14 08:11:36;;;;;;;8.57;4.93;;;;;;;;;;4953025;28;20354;-72
2023/01/14 08:14:02;;;;;;;8.77;5.00;;;;;;;;;;4952773;28;20047;-73
2023/01/14 08:16:28;;;;;;;12.10;5.40;;;;;;;;;;4955786;28;20058;-72
2023/01/14 08:18:54;;;;;;;12.32;5.22;;;;;;;;;;4956259;28;20476;-82
2023/01/14 08:21:20;;;;;;;8.60;5.40;;;;;;;;;;4956676;28;21024;-69
2023/01/14 08:23:46;;;;;;;13.75;5.57;;;;;;;;;;4955869;28;20054;-74
2023/01/14 08:26:13;;;;;;;12.85;5.90;;;;;;;;;;4958998;28;20161;-73
2023/01/14 08:28:40;;;;;;;9.02;5.53;;;;;;;;;;4971146;28;20054;-73
2023/01/14 08:31:13;;;;;;;9.38;5.10;;;;;;;;;;4956835;28;20047;-74
2023/01/14 08:33:40;;;;;;;11.07;5.03;;;;;;;;;;4953937;28;20121;-76
2023/01/14 08:36:12;;;;;;;9.45;4.88;;;;;;;;;;4955550;28;20068;-73
2023/01/14 08:38:41;;;;;;;7.68;4.70;;;;;;;;;;4956714;28;20046;-78
2023/01/14 08:41:10;;;;;;;6.95;4.30;;;;;;;;;;4959004;28;20146;-71
2023/01/14 08:43:37;;;;;;;12.77;4.72;;;;;;;;;;4959679;28;20047;-75
2023/01/14 08:46:04;;;;;;;7.63;4.30;;;;;;;;;;4944956;28;20043;-77
2023/01/14 08:48:30;;;;;;;7.82;4.30;;;;;;;;;;4959326;28;20091;-71
2023/01/14 08:51:02;;;;;;;8.13;4.90;;;;;;;;;;4971287;28;20051;-71
2023/01/14 08:53:29;;;;;;;9.57;4.60;;;;;;;;;;4956627;28;20058;-82
2023/01/14 08:55:56;;;;;;;7.78;4.55;;;;;;;;;;4955986;28;20063;-73
2023/01/14 08:58:23;;;;;;;11.38;4.75;;;;;;;;;;4961906;28;20201;-79
2023/01/14 09:00:49;;;;;;;7.65;5.30;;;;;;;;;;4959963;28;20047;-73
2023/01/14 09:03:15;;;;;;;7.38;4.65;;;;;;;;;;4959411;28;20110;-70
2023/01/14 09:05:41;;;;;;;7.38;4.60;;;;;;;;;;4955792;28;20044;-73
2023/01/14 09:19:08;;;;;;;9.73;3.80;;;;;;;;;;4955914;28;20066;-69
2023/01/14 09:21:34;;;;;;;8.30;4.45;;;;;;;;;;4956734;28;20053;-71
2023/01/14 09:24:00;;;;;;;7.53;4.30;;;;;;;;;;4954913;28;20043;-79
2023/01/14 09:26:26;;;;;;;6.60;3.70;;;;;;;;;;4953802;28;20805;-79
2023/01/14 09:28:52;;;;;;;5.85;3.80;;;;;;;;;;4958675;28;20034;-67
2023/01/14 09:31:18;;;;;;;7.68;4.25;;;;;;;;;;4953977;28;20075;-69
2023/01/14 09:33:44;;;;;;;9.85;4.18;;;;;;;;;;4957151;28;20469;-71
2023/01/14 09:36:11;;;;;;;6.28;3.80;;;;;;;;;;4954013;28;20526;-76
2023/01/14 09:38:37;;;;;;;9.05;3.92;;;;;;;;;;4956814;28;20992;-67
2023/01/14 09:41:03;;;;;;;9.23;4.80;;;;;;;;;;4954882;28;20050;-69
2023/01/14 09:43:30;;;;;;;9.10;4.03;;;;;;;;;;4954563;28;20051;-72
2023/01/14 09:46:00;;;;;;;7.07;4.60;;;;;;;;;;4955495;28;20098;-71
2023/01/14 09:48:30;;;;;;;7.28;4.10;;;;;;;;;;4956221;28;20047;-69
2023/01/14 09:51:10;;;;;;;9.20;4.35;;;;;;;;;;4959600;28;20044;-70
2023/01/14 09:54:18;;;;;;;8.05;4.57;;;;;;;;;;4951921;28;20066;-68
2023/01/14 09:57:20;;;;;;;7.32;4.53;;;;;;;;;;4956067;28;20043;-79
2023/01/14 09:59:51;;;;;;;8.43;4.68;;;;;;;;;;4915466;29;20403;-71
2023/01/14 10:02:41;;;;;;;10.13;4.22;;;;;;;;;;4918882;29;20082;-69
2023/01/14 10:05:18;;;;;;;9.30;4.43;;;;;;;;;;4917820;29;20434;-77
2023/01/14 10:07:45;;;;;;;16.00;4.35;;;;;;;;;;4918962;29;20058;-66
2023/01/14 10:10:23;;;;;;;6.75;4.13;;;;;;;;;;4908218;29;20055;-70
2023/01/14 10:12:52;;;;;;;9.02;4.40;;;;;;;;;;4922225;29;20047;-67
2023/01/14 10:15:17;;;;;;;7.18;4.00;;;;;;;;;;4917743;29;20070;-79
2023/01/14 10:17:53;;;;;;;6.38;3.90;;;;;;;;;;4915699;29;20139;-67
2023/01/14 10:20:29;;;;;;;10.68;3.90;;;;;;;;;;4919505;29;21109;-69
2023/01/14 10:23:05;;;;;;;5.82;3.47;;;;;;;;;;4920767;29;20059;-81
2023/01/14 10:25:30;;;;;;;8.05;3.58;;;;;;;;;;4918724;29;20234;-69
2023/01/14 10:27:59;;;;;;;5.25;3.30;;;;;;;;;;4917337;29;20051;-76
2023/01/14 10:30:34;;;;;;;7.15;3.40;;;;;;;;;;4914413;29;20115;-73
2023/01/14 10:33:03;;;;;;;7.18;3.40;;;;;;;;;;4922359;29;20155;-77
2023/01/14 10:35:33;;;;;;;7.78;3.80;;;;;;;;;;4934904;28;20468;-70
2023/01/14 10:38:01;;;;;;;7.32;3.30;;;;;;;;;;4950735;28;20046;-68
2023/01/14 10:40:28;;;;;;;4.63;3.05;;;;;;;;;;4960217;28;20053;-68
2023/01/14 10:43:00;;;;;;;5.53;3.10;;;;;;;;;;4951734;28;20086;-73
2023/01/14 10:45:26;;;;;;;5.22;2.90;;;;;;;;;;4950189;28;20489;-70
2023/01/14 10:48:02;;;;;;;6.65;3.03;;;;;;;;;;4959605;28;20062;-68
2023/01/14 10:50:30;;;;;;;7.25;3.15;;;;;;;;;;4954149;28;20051;-72
2023/01/14 10:53:14;;;;;;;5.95;3.20;;;;;;;;;;4960497;28;20449;-77
2023/01/14 10:56:06;;;;;;;5.07;3.08;;;;;;;;;;4966062;28;20043;-66
2023/01/14 10:58:40;;;;;;;5.13;2.97;;;;;;;;;;4953200;28;20492;-70
2023/01/14 11:01:07;;;;;;;;;;;;;;;;;;4958203;28;20086;-72
2023/01/14 11:03:37;;;;;;;7.68;3.17;;;;;;;;;;4953312;28;19933;-75
2023/01/14 11:06:08;;;;;;;5.63;2.70;;;;;;;;;;4958213;28;20843;-76
2023/01/14 11:08:36;;;;;;;10.02;3.40;;;;;;;;;;4956642;28;20335;-75
2023/01/14 11:11:24;;;;;;;5.10;3.13;;;;;;;;;;4952648;28;20197;-73
2023/01/14 11:13:53;;;;;;;6.45;3.13;;;;;;;;;;4956411;28;20042;-76
2023/01/14 11:16:24;;;;;;;11.52;3.30;;;;;;;;;;4959026;28;20051;-68
2023/01/14 11:18:58;;;;;;;3.88;2.83;;;;;;;;;;4955933;28;20058;-67
2023/01/14 11:21:26;;;;;;;4.65;3.00;;;;;;;;;;4955550;28;20456;-68
2023/01/14 11:23:56;;;;;;;6.07;2.92;;;;;;;;;;4953767;28;20543;-72
2023/01/14 11:26:36;;;;;;;4.75;3.00;;;;;;;;;;4960403;28;20050;-75
2023/01/14 11:29:05;;;;;;;5.53;2.70;;;;;;;;;;4959638;28;20058;-73
2023/01/14 11:31:35;;;;;;;4.28;2.22;;;;;;;;;;4951732;28;20048;-81
2023/01/14 11:34:02;;;;;;;5.35;2.58;;;;;;;;;;4960707;28;20066;-75
2023/01/14 11:36:31;;;;;;;5.82;2.85;;;;;;;;;;4952628;28;20055;-71
2023/01/14 11:39:00;;;;;;;4.53;2.72;;;;;;;;;;4950780;28;20059;-74
2023/01/14 11:41:39;;;;;;;7.32;2.88;;;;;;;;;;4954760;28;20058;-69
2023/01/14 11:44:21;;;;;;;3.90;2.42;;;;;;;;;;4951295;28;20114;-72
2023/01/14 11:47:13;;;;;;;4.95;2.25;;;;;;;;;;4947928;28;20138;-79
2023/01/14 11:49:39;;;;;;;4.78;2.42;;;;;;;;;;4953658;28;20047;-71
2023/01/14 11:52:16;;;;;;;3.92;2.42;;;;;;;;;;4946203;28;20512;-72
2023/01/14 11:54:45;;;;;;;4.53;2.38;;;;;;;;;;4955714;28;20055;-68
2023/01/14 11:57:15;;;;;;;6.45;2.50;;;;;;;;;;4959244;28;20082;-75
2023/01/14 11:59:42;;;;;;;5.47;1.90;;;;;;;;;;4951613;28;20389;-75
2023/01/14 12:02:10;;;;;;;4.75;2.05;;;;;;;;;;4959702;28;20062;-69
2023/01/14 12:04:49;;;;;;;3.90;2.03;;;;;;;;;;4962433;28;20212;-74
2023/01/14 12:07:26;;;;;;;4.93;2.42;;;;;;;;;;4964652;28;20126;-68
2023/01/14 12:10:04;;;;;;;4.65;2.58;;;;;;;;;;4959047;28;20059;-71
2023/01/14 12:18:46;;;;;;;8.57;2.78;;;;;;;;;;4962544;28;20527;-69
2023/01/14 12:21:15;;;;;;;10.57;5.97;;;;;;;;;;4958716;28;20054;-77
2023/01/14 12:23:49;;;;;;;11.77;6.95;;;;;;;;;;4956455;28;20043;-71
2023/01/14 12:26:20;;;;;;;12.48;7.20;;;;;;;;;;4958164;28;20046;-69
2023/01/14 12:28:53;;;;;;;11.90;6.95;;;;;;;;;;4963711;28;20038;-69
2023/01/14 12:31:23;;;;;;;17.27;7.10;;;;;;;;;;4951669;28;20042;-70
2023/01/14 12:34:21;;;;;;;11.73;6.57;;;;;;;;;;4958534;28;20484;-71
2023/01/14 12:37:16;;;;;;;15.55;6.10;;;;;;;;;;4960019;28;20162;-71
2023/01/14 12:45:45;;;;;;;10.40;5.93;;;;;;;;;;4956849;28;20039;-77
2023/01/14 12:48:17;;;;;;;8.93;4.82;;;;;;;;;;4953902;28;20059;-68
2023/01/14 12:50:57;;;;;;;9.57;5.15;;;;;;;;;;4964060;28;20047;-71
2023/01/14 12:53:47;;;;;;;10.00;4.97;;;;;;;;;;4959918;28;20063;-77
2023/01/14 12:56:33;;;;;;;7.88;4.65;;;;;;;;;;4960611;28;20735;-78
2023/01/14 12:58:59;;;;;;;10.52;5.28;;;;;;;;;;4959817;28;20097;-71
2023/01/14 13:01:34;;;;;;;9.60;5.15;;;;;;;;;;4965821;28;20256;-76
2023/01/14 13:04:02;;;;;;;;;;;;;;;;;;4965510;28;20406;-71
2023/01/14 13:06:35;;;;;;;9.80;5.95;;;;;;;;;;4957814;28;20599;-76
2023/01/14 13:09:04;;;;;;;12.68;5.88;;;;;;;;;;4965345;28;20062;-76
2023/01/14 13:11:44;;;;;;;9.82;5.85;;;;;;;;;;4959487;28;20054;-70
2023/01/14 13:14:34;;;;;;;10.98;5.82;;;;;;;;;;4953174;28;20055;-68
2023/01/14 13:17:06;;;;;;;11.10;5.70;;;;;;;;;;4961629;28;20044;-72
2023/01/14 13:19:36;;;;;;;17.23;5.35;;;;;;;;;;4957765;28;20054;-72
2023/01/14 13:22:39;;;;;;;10.80;5.68;;;;;;;;;;4957280;28;20123;-73
2023/01/14 13:25:05;;;;;;;12.60;5.90;;;;;;;;;;4945829;28;20051;-80
2023/01/14 13:27:40;;;;;;;11.13;5.47;;;;;;;;;;4950611;28;20050;-71
2023/01/14 13:30:18;;;;;;;10.15;5.40;;;;;;;;;;4942761;28;20047;-73
2023/01/14 13:32:53;;;;;;;17.45;7.15;;;;;;;;;;4939942;28;20074;-74
2023/01/14 13:35:21;;;;;;;20.88;8.13;;;;;;;;;;4937694;29;20059;-75
2023/01/14 13:37:48;;;;;;;15.88;7.50;;;;;;;;;;4948444;29;20075;-72
2023/01/14 13:40:20;;;;;;;19.67;8.82;;;;;;;;;;4945126;28;20055;-72
2023/01/14 13:42:57;;;;;;;9.73;5.65;;;;;;;;;;4944086;28;20083;-74
2023/01/14 13:45:27;;;;;;;18.52;8.25;;;;;;;;;;4943440;28;20541;-74
2023/01/14 13:47:56;;;;;;;12.30;6.63;;;;;;;;;;4944326;28;20469;-72
2023/01/14 13:50:32;;;;;;;7.30;4.32;;;;;;;;;;4941618;28;20106;-72
2023/01/14 13:53:23;;;;;;;12.35;6.03;;;;;;;;;;4945810;28;20055;-77
2023/01/14 13:56:19;;;;;;;4.47;1.98;;;;;;;;;;4942998;28;20050;-78
2023/01/14 13:58:48;;;;;;;4.38;1.50;;;;;;;;;;4936675;28;20067;-73
2023/01/14 14:01:29;;;;;;;4.35;0.95;;;;;;;;;;4937760;28;20055;-77
2023/01/14 14:04:00;;;;;;;3.80;1.50;;;;;;;;;;4947053;28;20154;-74
2023/01/14 14:06:29;;;;;;;1.38;1.13;;;;;;;;;;4951503;28;20748;-73
2023/01/14 14:09:06;;;;;;;5.53;1.35;;;;;;;;;;4953130;28;20754;-76
2023/01/14 14:14:03;;;;;;;4.95;1.02;;;;;;;;;;4949217;28;20039;-75
2023/01/14 14:15:14;;;;;;;3.53;0.95;;;;;;;;;;4949461;28;20409;-75
2023/01/14 14:17:43;;;;;;;4.10;1.20;;;;;;;;;;4946650;28;20046;-74
2023/01/14 14:20:17;;;;;;;2.75;1.10;;;;;;;;;;4960326;28;20046;-71
2023/01/14 14:22:53;;;;;;;3.15;1.20;;;;;;;;;;4961231;28;20132;-74
2023/01/14 14:25:38;;;;;;;3.28;1.60;;;;;;;;;;4963558;28;20509;-78
2023/01/14 14:28:14;;;;;;;4.07;1.40;;;;;;;;;;4956439;28;20063;-68
2023/01/14 14:30:45;;;;;;;2.90;1.13;;;;;;;;;;4957073;28;20046;-78
2023/01/14 14:33:31;;;;;;;1.88;1.10;;;;;;;;;;4958311;28;20086;-76
2023/01/14 14:35:57;;;;;;;1.67;0.95;;;;;;;;;;4959761;28;20058;-73
2023/01/14 14:38:25;;;;;;;4.32;0.98;;;;;;;;;;4955366;28;20046;-73
2023/01/14 14:40:50;;;;;;;1.48;1.00;;;;;;;;;;4958450;28;20553;-74
2023/01/14 14:43:25;;;;;;;1.65;1.20;;;;;;;;;;4960368;28;20112;-82
2023/01/14 14:46:10;;;;;;;2.72;1.25;;;;;;;;;;4965370;28;20051;-82
2023/01/14 14:48:40;;;;;;;3.80;1.00;;;;;;;;;;4947160;28;20060;-74
2023/01/14 14:51:26;;;;;;;11.93;1.15;;;;;;;;;;4951108;28;20050;-81
2023/01/14 14:53:52;;;;;;;1.95;1.00;;;;;;;;;;4956699;28;20059;-77
2023/01/14 14:56:21;;;;;;;2.70;0.82;;;;;;;;;;4952961;28;20089;-71
2023/01/14 14:58:51;;;;;;;2.50;0.90;;;;;;;;;;4957445;28;20039;-79
2023/01/14 15:01:22;;;;;;;7.97;1.17;;;;;;;;;;4956957;28;20050;-71
2023/01/14 15:03:54;;;;;;;6.63;1.35;;;;;;;;;;4954685;28;20047;-76
2023/01/14 15:06:20;;;;;;;2.70;1.50;;;;;;;;;;4950628;28;20063;-72
2023/01/14 15:08:54;;;;;;;1.45;1.00;;;;;;;;;;4961119;28;20053;-71
2023/01/14 15:11:25;;;;;;;1.98;0.80;;;;;;;;;;4959301;28;20051;-70
2023/01/14 15:13:51;;;;;;;7.13;1.27;;;;;;;;;;4956271;28;20047;-69
2023/01/14 15:16:22;;;;;;;1.23;0.90;;;;;;;;;;4956609;28;20125;-72
2023/01/14 15:18:59;;;;;;;1.80;0.90;;;;;;;;;;4951398;28;20047;-68
2023/01/14 15:21:33;;;;;;;1.80;1.10;;;;;;;;;;4953474;28;20058;-80
2023/01/14 15:24:09;;;;;;;2.35;1.30;;;;;;;;;;4947705;28;20055;-67
2023/01/14 15:26:35;;;;;;;2.47;1.58;;;;;;;;;;4960744;28;20453;-79
2023/01/14 15:29:02;;;;;;;1.98;1.00;;;;;;;;;;4962470;28;20055;-67
2023/01/14 15:31:33;;;;;;;2.83;1.10;;;;;;;;;;4964028;28;20501;-65
2023/01/14 15:34:14;;;;;;;1.25;1.13;;;;;;;;;;4959765;28;20046;-68
2023/01/14 15:36:43;;;;;;;3.85;1.38;;;;;;;;;;4956660;28;20055;-75
2023/01/14 15:39:16;;;;;;;6.35;1.40;;;;;;;;;;4965614;28;20059;-69
2023/01/14 15:41:56;;;;;;;2.58;1.00;;;;;;;;;;4961936;28;20087;-66
2023/01/14 15:44:28;;;;;;;1.70;1.17;;;;;;;;;;4959420;28;20480;-67